Buoy 44845

sailwx.info

Track history (hours):
 
Tides and Currents Weather Stations Pressure Air Temp Water Temp Dewpoint Dewpoint Depression Visibility Wind Speed Wind Dir Waves Ship Positions

Drifting buoy 44845

Last reported at 2017-Jan-23 20:01 UTC. Time now 2017-Jan-23 20:58 UTC.
Position N 72°00' E 045°40'.

Date/timePositionNaut miles runAvg speedWind from/ knotsBaromVisibWave heightAir tempDewpointWater temp
2017-Jan-23 20:01N 72°00' E 045°40'1 0.6
2017-Jan-23 19:01N 72°01' E 045°40'0 0.0
2017-Jan-23 18:01N 72°01' E 045°40'1 0.6
2017-Jan-23 17:01N 72°01' E 045°39'1 0.6
2017-Jan-23 16:01N 72°02' E 045°38'0 0.4
2017-Jan-23 15:01N 72°02' E 045°37'1 0.7
2017-Jan-23 14:01N 72°02' E 045°36'1 0.6
2017-Jan-23 13:01N 72°03' E 045°35'0 0.0
2017-Jan-23 12:01N 72°03' E 045°35'1 0.6
2017-Jan-23 11:01N 72°04' E 045°35'0 0.2
2017-Jan-23 10:01N 72°04' E 045°36'0 0.0
2017-Jan-23 09:01N 72°04' E 045°36'1 0.6
2017-Jan-23 08:01N 72°04' E 045°35'0 0.0
2017-Jan-23 07:01N 72°04' E 045°35'0 0.0
2017-Jan-23 06:01N 72°04' E 045°35'0 0.0
2017-Jan-23 05:01N 72°04' E 045°35'0 0.2
2017-Jan-23 04:01N 72°04' E 045°36'0 0.0
2017-Jan-23 03:01N 72°04' E 045°36'0 0.0
2017-Jan-23 02:01N 72°04' E 045°36'1 0.6
2017-Jan-23 01:01N 72°05' E 045°36'0 0.0
2017-Jan-23 00:01N 72°05' E 045°36'1 0.6
2017-Jan-22 23:01N 72°05' E 045°35'0 0.2
2017-Jan-22 22:01N 72°05' E 045°35'1 0.6
2017-Jan-22 21:01N 72°06' E 045°34'0 0.4
2017-Jan-22 20:01N 72°06' E 045°33'1 0.6
2017-Jan-22 19:01N 72°07' E 045°32'0 0.4
2017-Jan-22 18:01N 72°07' E 045°31'0 0.2
2017-Jan-22 17:01N 72°07' E 045°31'1 0.6
2017-Jan-22 16:02N 72°07' E 045°30'0 0.2
2017-Jan-22 15:01N 72°07' E 045°29'0 0.0
2017-Jan-22 14:01N 72°07' E 045°29'1 0.6
2017-Jan-22 13:01N 72°08' E 045°29'0 0.2
2017-Jan-22 12:01N 72°08' E 045°28'1 0.6
2017-Jan-22 11:01N 72°08' E 045°28'0 0.0
2017-Jan-22 10:01N 72°08' E 045°28'1 0.6
2017-Jan-22 09:01N 72°09' E 045°27'0 0.2
2017-Jan-22 08:01N 72°09' E 045°28'1 0.6
2017-Jan-22 07:01N 72°10' E 045°28'0 0.0
2017-Jan-22 06:01N 72°10' E 045°28'1 0.6
2017-Jan-22 05:01N 72°10' E 045°27'0 0.4
2017-Jan-22 04:01N 72°10' E 045°26'1 0.7
2017-Jan-22 03:01N 72°11' E 045°25'1 0.9
2017-Jan-22 02:01N 72°11' E 045°22'1 0.7
2017-Jan-22 01:01N 72°11' E 045°20'1 0.9
2017-Jan-22 00:01N 72°12' E 045°17'0 0.4
2017-Jan-21 23:01N 72°12' E 045°16'0 0.2
2017-Jan-21 22:01N 72°12' E 045°16'0 0.2
2017-Jan-21 21:01N 72°12' E 045°15'0 0.2
2017-Jan-21 20:01N 72°12' E 045°14'1 0.7
2017-Jan-21 19:01N 72°11' E 045°13'1 0.6
2017-Jan-21 18:01N 72°11' E 045°11'1 0.6
2017-Jan-21 17:01N 72°11' E 045°10'1 0.7
2017-Jan-21 16:01N 72°11' E 045°07'1 0.7
2017-Jan-21 15:01N 72°11' E 045°05'1 0.7
2017-Jan-21 14:01N 72°11' E 045°02'1 0.8
2017-Jan-21 13:01N 72°12' E 045°01'0 0.2
2017-Jan-21 12:01N 72°12' E 045°00'1 0.6
2017-Jan-21 11:01N 72°13' E 044°59'0 0.2
2017-Jan-21 10:01N 72°13' E 045°00'0 0.2
2017-Jan-21 09:01N 72°13' E 045°01'1 0.6
2017-Jan-21 08:01N 72°13' E 045°01'0 0.2
2017-Jan-21 07:01N 72°13' E 045°01'0 0.2
2017-Jan-21 06:01N 72°13' E 045°02'1 0.6
2017-Jan-21 05:01N 72°14' E 045°02'0 0.2
2017-Jan-21 04:01N 72°14' E 045°02'0 0.2
2017-Jan-21 03:01N 72°14' E 045°01'0 0.4
2017-Jan-21 02:01N 72°14' E 045°00'1 0.7
2017-Jan-21 01:01N 72°14' E 044°59'0 0.4
2017-Jan-21 00:01N 72°14' E 044°58'1 0.6
2017-Jan-20 23:01N 72°15' E 044°58'0 0.4
2017-Jan-20 22:01N 72°15' E 044°59'1 0.5
2017-Jan-20 21:01N 72°15' E 045°01'0 0.4
2017-Jan-20 20:01N 72°15' E 045°02'1 0.7
2017-Jan-20 19:01N 72°14' E 045°03'1 0.7
2017-Jan-20 18:01N 72°14' E 045°04'1 0.6 1013.3 14.214.2
2017-Jan-20 17:01N 72°13' E 045°04'0 0.2
2017-Jan-20 16:01N 72°13' E 045°04'1 0.7
2017-Jan-20 15:01N 72°13' E 045°02'1 0.5
2017-Jan-20 14:01N 72°13' E 045°01'1 0.5
2017-Jan-20 13:01N 72°13' E 044°59'1 0.5
2017-Jan-20 12:01N 72°13' E 044°57'1 0.5
2017-Jan-20 11:01N 72°13' E 044°55'1 0.5
2017-Jan-20 10:01N 72°13' E 044°53'1 0.8
2017-Jan-20 09:01N 72°13' E 044°52'0 0.2
2017-Jan-20 08:01N 72°13' E 044°51'1 0.6
2017-Jan-20 07:01N 72°14' E 044°50'1 0.6
2017-Jan-20 06:01N 72°14' E 044°50'1 0.6
2017-Jan-20 05:01N 72°15' E 044°49'1 0.7
2017-Jan-20 04:01N 72°16' E 044°48'0 0.0
2017-Jan-20 03:01N 72°16' E 044°48'1 0.7
2017-Jan-20 02:01N 72°16' E 044°47'0 0.4
2017-Jan-20 01:01N 72°16' E 044°46'1 0.5
2017-Jan-20 00:01N 72°16' E 044°44'1 0.7
2017-Jan-19 23:01N 72°17' E 044°43'1 0.5
2017-Jan-19 22:01N 72°17' E 044°41'1 0.7
2017-Jan-19 21:01N 72°17' E 044°38'1 0.5
2017-Jan-19 20:01N 72°17' E 044°37'1 0.5
2017-Jan-19 19:01N 72°17' E 044°35'0 0.4
2017-Jan-19 18:01N 72°17' E 044°34'0 0.4 280 / 19 gusting 231007.8 2.720.118.122.7
2017-Jan-19 17:01N 72°17' E 044°32'1 0.6
2017-Jan-19 16:01N 72°16' E 044°32'1 0.6
2017-Jan-19 15:01N 72°16' E 044°33'0 0.2
2017-Jan-19 14:01N 72°16' E 044°34'0 0.4
2017-Jan-19 13:01N 72°16' E 044°35'0 0.4
2017-Jan-19 12:01N 72°16' E 044°36'1 0.5
2017-Jan-19 11:01N 72°16' E 044°38'1 0.4
2017-Jan-19 09:01N 72°15' E 044°39'0 0.2
2017-Jan-19 08:01N 72°15' E 044°40'1 0.6
2017-Jan-19 07:01N 72°14' E 044°40'0 0.2
2017-Jan-19 06:01N 72°14' E 044°41'0 0.0
2017-Jan-19 05:01N 72°14' E 044°41'1 0.6
2017-Jan-19 04:01N 72°14' E 044°40'1 0.6
2017-Jan-19 03:01N 72°13' E 044°40'1 0.7
2017-Jan-19 02:01N 72°13' E 044°39'1 0.6
2017-Jan-19 01:01N 72°12' E 044°38'1 0.9
2017-Jan-19 00:01N 72°11' E 044°36'1 1.4
2017-Jan-18 23:01N 72°10' E 044°34'1 0.8
2017-Jan-18 22:01N 72°10' E 044°32'1 1.3
2017-Jan-18 21:01N 72°08' E 044°30'1 0.9
2017-Jan-18 20:01N 72°08' E 044°28'1 1.1
2017-Jan-18 19:01N 72°07' E 044°25'1 0.6
2017-Jan-18 18:01N 72°07' E 044°23'1 0.7
2017-Jan-18 17:01N 72°07' E 044°20'1 0.6
2017-Jan-18 16:01N 72°07' E 044°19'1 0.8
2017-Jan-18 15:01N 72°08' E 044°17'1 0.7
2017-Jan-18 14:01N 72°08' E 044°14'1 0.7
2017-Jan-18 13:01N 72°08' E 044°12'1 1.1
2017-Jan-18 12:01N 72°08' E 044°09'1 0.9
2017-Jan-18 11:01N 72°08' E 044°06'1 0.9
2017-Jan-18 10:01N 72°09' E 044°04'1 0.8
2017-Jan-18 09:01N 72°10' E 044°02'1 0.8
2017-Jan-18 08:01N 72°10' E 044°00'1 0.9
2017-Jan-18 07:01N 72°11' E 043°58'1 0.7
2017-Jan-18 06:01N 72°11' E 043°55'1 1.1 120 / 14 gusting 171018.8 2.710.7 7.711.6
2017-Jan-18 05:01N 72°11' E 043°52'1 0.6
2017-Jan-18 04:01N 72°11' E 043°50'1 0.7
2017-Jan-18 03:01N 72°11' E 043°48'1 0.7
2017-Jan-18 02:01N 72°11' E 043°46'1 0.6
2017-Jan-18 01:01N 72°11' E 043°44'1 0.7
2017-Jan-18 00:01N 72°11' E 043°41'1 0.7
2017-Jan-17 23:01N 72°11' E 043°39'1 0.7
2017-Jan-17 22:01N 72°11' E 043°37'1 0.6
2017-Jan-17 21:01N 72°11' E 043°35'1 0.8
2017-Jan-17 20:01N 72°11' E 043°33'1 0.7
2017-Jan-17 19:01N 72°11' E 043°31'1 0.6
2017-Jan-17 18:01N 72°11' E 043°29'0 0.4 210 / 41038.9 0.4-1.6 3.7
2017-Jan-17 17:01N 72°11' E 043°28'1 0.7
2017-Jan-17 16:01N 72°11' E 043°25'1 0.7
2017-Jan-17 15:01N 72°10' E 043°24'1 0.6
2017-Jan-17 14:01N 72°10' E 043°22'1 0.8
2017-Jan-17 13:01N 72°10' E 043°20'1 0.8
2017-Jan-17 12:01N 72°09' E 043°19'1 0.9
2017-Jan-17 11:01N 72°08' E 043°16'1 0.6
2017-Jan-17 10:01N 72°08' E 043°14'1 0.8
2017-Jan-17 09:01N 72°08' E 043°13'1 1.0
2017-Jan-17 08:01N 72°07' E 043°10'3 0.8
2017-Jan-17 05:01N 72°06' E 043°03'2 0.6
2017-Jan-17 02:01N 72°05' E 042°58'1 0.6
2017-Jan-17 01:01N 72°05' E 042°56'1 0.7
2017-Jan-17 00:01N 72°04' E 042°55'1 0.6
2017-Jan-16 23:01N 72°04' E 042°53'1 0.7
2017-Jan-16 22:01N 72°04' E 042°52'0 0.4
2017-Jan-16 21:01N 72°04' E 042°51'0 0.4
2017-Jan-16 20:01N 72°04' E 042°50'0 0.4
2017-Jan-16 19:01N 72°04' E 042°49'1 0.8
2017-Jan-16 18:01N 72°04' E 042°47'1 0.6
2017-Jan-16 17:01N 72°04' E 042°46'0 0.2
2017-Jan-16 16:01N 72°04' E 042°46'1 0.6
2017-Jan-16 15:01N 72°04' E 042°46'0 0.2
2017-Jan-16 14:01N 72°04' E 042°46'0 0.0
2017-Jan-16 13:01N 72°04' E 042°46'0 0.0
2017-Jan-16 12:01N 72°04' E 042°46'1 0.6
2017-Jan-16 11:01N 72°05' E 042°46'1 0.3
2017-Jan-16 09:01N 72°05' E 042°46'1 0.6
2017-Jan-16 08:01N 72°06' E 042°46'0 0.0
2017-Jan-16 07:01N 72°06' E 042°46'1 0.6
2017-Jan-16 05:01N 72°07' E 042°46'1 0.6
2017-Jan-16 04:01N 72°08' E 042°47'1 0.4
2017-Jan-16 01:01N 72°09' E 042°48'0 0.2
2017-Jan-16 00:01N 72°09' E 042°47'0 0.2
2017-Jan-15 23:01N 72°09' E 042°47'0 0.2
2017-Jan-15 22:01N 72°09' E 042°46'1 0.7
2017-Jan-15 21:01N 72°10' E 042°45'0 0.4
2017-Jan-15 20:01N 72°10' E 042°44'1 0.7
2017-Jan-15 19:01N 72°10' E 042°43'0 0.4
2017-Jan-15 18:01N 72°10' E 042°41'0 0.4
2017-Jan-15 17:01N 72°10' E 042°40'0 0.2
2017-Jan-15 16:01N 72°10' E 042°40'0 0.4
2017-Jan-15 15:01N 72°10' E 042°38'0 0.2
2017-Jan-15 14:01N 72°10' E 042°38'1 0.6
2017-Jan-15 13:01N 72°10' E 042°37'1 0.7
2017-Jan-15 12:01N 72°09' E 042°36'1 0.7
2017-Jan-15 11:01N 72°08' E 042°35'0 0.2
2017-Jan-15 10:01N 72°08' E 042°34'1 0.5
2017-Jan-15 08:01N 72°08' E 042°32'1 0.5
2017-Jan-15 06:01N 72°07' E 042°29'1 0.7
2017-Jan-15 05:01N 72°07' E 042°28'1 0.7
2017-Jan-15 04:01N 72°06' E 042°27'1 0.5
2017-Jan-15 02:01N 72°05' E 042°25'1 0.7
2017-Jan-15 01:01N 72°05' E 042°23'1 0.7
2017-Jan-15 00:01N 72°04' E 042°22'1 0.7
2017-Jan-14 23:01N 72°04' E 042°21'1 0.7
2017-Jan-14 22:01N 72°03' E 042°20'1 0.6
2017-Jan-14 21:01N 72°03' E 042°18'1 0.7
2017-Jan-14 20:01N 72°02' E 042°17'1 0.6
2017-Jan-14 19:01N 72°02' E 042°15'1 0.6
2017-Jan-14 18:01N 72°02' E 042°13'1 0.8
2017-Jan-14 17:01N 72°02' E 042°11'0 0.4
2017-Jan-14 16:01N 72°02' E 042°10'1 0.6
2017-Jan-14 15:01N 72°01' E 042°10'0 0.2
2017-Jan-14 14:01N 72°01' E 042°09'1 0.6
2017-Jan-14 13:01N 72°01' E 042°08'1 0.6
2017-Jan-14 12:01N 72°00' E 042°08'1 0.6
2017-Jan-14 11:01N 71°59' E 042°08'1 0.6
2017-Jan-14 10:01N 71°59' E 042°08'1 0.6
2017-Jan-14 09:01N 71°58' E 042°08'1 0.6
2017-Jan-14 08:01N 71°58' E 042°07'1 0.7
2017-Jan-14 07:01N 71°57' E 042°06'1 0.7
2017-Jan-14 06:01N 71°56' E 042°05'1 0.6
2017-Jan-14 05:01N 71°56' E 042°04'1 0.6
2017-Jan-14 04:01N 71°55' E 042°04'1 0.6
2017-Jan-14 03:01N 71°55' E 042°03'1 0.6
2017-Jan-14 02:01N 71°54' E 042°02'1 1.3
2017-Jan-14 01:01N 71°53' E 042°01'1 0.6
2017-Jan-14 00:01N 71°52' E 042°01'1 0.7
2017-Jan-13 23:01N 71°52' E 041°59'1 1.2
2017-Jan-13 22:01N 71°50' E 041°59'1 0.7
2017-Jan-13 21:01N 71°50' E 041°58'1 0.8
2017-Jan-13 20:01N 71°49' E 041°56'  
Track history (hours):
 
Tides and Currents Weather Stations Pressure Air Temp Water Temp Dewpoint Dewpoint Depression Visibility Wind Speed Wind Dir Waves Ship Positions

Drifting buoy 44845

Last reported at 2017-Jan-23 20:01 UTC. Time now 2017-Jan-23 20:58 UTC.
Position N 72°00' E 045°40'.

Date/timePositionNaut miles runAvg speedWind from/ knotsBaromVisibWave heightAir tempDewpointWater temp
2017-Jan-23 20:01N 72°00' E 045°40'1 0.6
2017-Jan-23 19:01N 72°01' E 045°40'0 0.0
2017-Jan-23 18:01N 72°01' E 045°40'1 0.6
2017-Jan-23 17:01N 72°01' E 045°39'1 0.6
2017-Jan-23 16:01N 72°02' E 045°38'0 0.4
2017-Jan-23 15:01N 72°02' E 045°37'1 0.7
2017-Jan-23 14:01N 72°02' E 045°36'1 0.6
2017-Jan-23 13:01N 72°03' E 045°35'0 0.0
2017-Jan-23 12:01N 72°03' E 045°35'1 0.6
2017-Jan-23 11:01N 72°04' E 045°35'0 0.2
2017-Jan-23 10:01N 72°04' E 045°36'0 0.0
2017-Jan-23 09:01N 72°04' E 045°36'1 0.6
2017-Jan-23 08:01N 72°04' E 045°35'0 0.0
2017-Jan-23 07:01N 72°04' E 045°35'0 0.0
2017-Jan-23 06:01N 72°04' E 045°35'0 0.0
2017-Jan-23 05:01N 72°04' E 045°35'0 0.2
2017-Jan-23 04:01N 72°04' E 045°36'0 0.0
2017-Jan-23 03:01N 72°04' E 045°36'0 0.0
2017-Jan-23 02:01N 72°04' E 045°36'1 0.6
2017-Jan-23 01:01N 72°05' E 045°36'0 0.0
2017-Jan-23 00:01N 72°05' E 045°36'1 0.6
2017-Jan-22 23:01N 72°05' E 045°35'0 0.2
2017-Jan-22 22:01N 72°05' E 045°35'1 0.6
2017-Jan-22 21:01N 72°06' E 045°34'0 0.4
2017-Jan-22 20:01N 72°06' E 045°33'1 0.6
2017-Jan-22 19:01N 72°07' E 045°32'0 0.4
2017-Jan-22 18:01N 72°07' E 045°31'0 0.2
2017-Jan-22 17:01N 72°07' E 045°31'1 0.6
2017-Jan-22 16:02N 72°07' E 045°30'0 0.2
2017-Jan-22 15:01N 72°07' E 045°29'0 0.0
2017-Jan-22 14:01N 72°07' E 045°29'1 0.6
2017-Jan-22 13:01N 72°08' E 045°29'0 0.2
2017-Jan-22 12:01N 72°08' E 045°28'1 0.6
2017-Jan-22 11:01N 72°08' E 045°28'0 0.0
2017-Jan-22 10:01N 72°08' E 045°28'1 0.6
2017-Jan-22 09:01N 72°09' E 045°27'0 0.2
2017-Jan-22 08:01N 72°09' E 045°28'1 0.6
2017-Jan-22 07:01N 72°10' E 045°28'0 0.0
2017-Jan-22 06:01N 72°10' E 045°28'1 0.6
2017-Jan-22 05:01N 72°10' E 045°27'0 0.4
2017-Jan-22 04:01N 72°10' E 045°26'1 0.7
2017-Jan-22 03:01N 72°11' E 045°25'1 0.9
2017-Jan-22 02:01N 72°11' E 045°22'1 0.7
2017-Jan-22 01:01N 72°11' E 045°20'1 0.9
2017-Jan-22 00:01N 72°12' E 045°17'0 0.4
2017-Jan-21 23:01N 72°12' E 045°16'0 0.2
2017-Jan-21 22:01N 72°12' E 045°16'0 0.2
2017-Jan-21 21:01N 72°12' E 045°15'0 0.2
2017-Jan-21 20:01N 72°12' E 045°14'1 0.7
2017-Jan-21 19:01N 72°11' E 045°13'1 0.6
2017-Jan-21 18:01N 72°11' E 045°11'1 0.6
2017-Jan-21 17:01N 72°11' E 045°10'1 0.7
2017-Jan-21 16:01N 72°11' E 045°07'1 0.7
2017-Jan-21 15:01N 72°11' E 045°05'1 0.7
2017-Jan-21 14:01N 72°11' E 045°02'1 0.8
2017-Jan-21 13:01N 72°12' E 045°01'0 0.2
2017-Jan-21 12:01N 72°12' E 045°00'1 0.6
2017-Jan-21 11:01N 72°13' E 044°59'0 0.2
2017-Jan-21 10:01N 72°13' E 045°00'0 0.2
2017-Jan-21 09:01N 72°13' E 045°01'1 0.6
2017-Jan-21 08:01N 72°13' E 045°01'0 0.2
2017-Jan-21 07:01N 72°13' E 045°01'0 0.2
2017-Jan-21 06:01N 72°13' E 045°02'1 0.6
2017-Jan-21 05:01N 72°14' E 045°02'0 0.2
2017-Jan-21 04:01N 72°14' E 045°02'0 0.2
2017-Jan-21 03:01N 72°14' E 045°01'0 0.4
2017-Jan-21 02:01N 72°14' E 045°00'1 0.7
2017-Jan-21 01:01N 72°14' E 044°59'0 0.4
2017-Jan-21 00:01N 72°14' E 044°58'1 0.6
2017-Jan-20 23:01N 72°15' E 044°58'0 0.4
2017-Jan-20 22:01N 72°15' E 044°59'1 0.5
2017-Jan-20 21:01N 72°15' E 045°01'0 0.4
2017-Jan-20 20:01N 72°15' E 045°02'1 0.7
2017-Jan-20 19:01N 72°14' E 045°03'1 0.7
2017-Jan-20 18:01N 72°14' E 045°04'1 0.6 1013.3 14.214.2
2017-Jan-20 17:01N 72°13' E 045°04'0 0.2
2017-Jan-20 16:01N 72°13' E 045°04'1 0.7
2017-Jan-20 15:01N 72°13' E 045°02'1 0.5
2017-Jan-20 14:01N 72°13' E 045°01'1 0.5
2017-Jan-20 13:01N 72°13' E 044°59'1 0.5
2017-Jan-20 12:01N 72°13' E 044°57'1 0.5
2017-Jan-20 11:01N 72°13' E 044°55'1 0.5
2017-Jan-20 10:01N 72°13' E 044°53'1 0.8
2017-Jan-20 09:01N 72°13' E 044°52'0 0.2
2017-Jan-20 08:01N 72°13' E 044°51'1 0.6
2017-Jan-20 07:01N 72°14' E 044°50'1 0.6
2017-Jan-20 06:01N 72°14' E 044°50'1 0.6
2017-Jan-20 05:01N 72°15' E 044°49'1 0.7
2017-Jan-20 04:01N 72°16' E 044°48'0 0.0
2017-Jan-20 03:01N 72°16' E 044°48'1 0.7
2017-Jan-20 02:01N 72°16' E 044°47'0 0.4
2017-Jan-20 01:01N 72°16' E 044°46'1 0.5
2017-Jan-20 00:01N 72°16' E 044°44'1 0.7
2017-Jan-19 23:01N 72°17' E 044°43'1 0.5
2017-Jan-19 22:01N 72°17' E 044°41'1 0.7
2017-Jan-19 21:01N 72°17' E 044°38'1 0.5
2017-Jan-19 20:01N 72°17' E 044°37'1 0.5
2017-Jan-19 19:01N 72°17' E 044°35'0 0.4
2017-Jan-19 18:01N 72°17' E 044°34'0 0.4 280 / 19 gusting 231007.8 2.720.118.122.7
2017-Jan-19 17:01N 72°17' E 044°32'1 0.6
2017-Jan-19 16:01N 72°16' E 044°32'1 0.6
2017-Jan-19 15:01N 72°16' E 044°33'0 0.2
2017-Jan-19 14:01N 72°16' E 044°34'0 0.4
2017-Jan-19 13:01N 72°16' E 044°35'0 0.4
2017-Jan-19 12:01N 72°16' E 044°36'1 0.5
2017-Jan-19 11:01N 72°16' E 044°38'1 0.4
2017-Jan-19 09:01N 72°15' E 044°39'0 0.2
2017-Jan-19 08:01N 72°15' E 044°40'1 0.6
2017-Jan-19 07:01N 72°14' E 044°40'0 0.2
2017-Jan-19 06:01N 72°14' E 044°41'0 0.0
2017-Jan-19 05:01N 72°14' E 044°41'1 0.6
2017-Jan-19 04:01N 72°14' E 044°40'1 0.6
2017-Jan-19 03:01N 72°13' E 044°40'1 0.7
2017-Jan-19 02:01N 72°13' E 044°39'1 0.6
2017-Jan-19 01:01N 72°12' E 044°38'1 0.9
2017-Jan-19 00:01N 72°11' E 044°36'1 1.4
2017-Jan-18 23:01N 72°10' E 044°34'1 0.8
2017-Jan-18 22:01N 72°10' E 044°32'1 1.3
2017-Jan-18 21:01N 72°08' E 044°30'1 0.9
2017-Jan-18 20:01N 72°08' E 044°28'1 1.1
2017-Jan-18 19:01N 72°07' E 044°25'1 0.6
2017-Jan-18 18:01N 72°07' E 044°23'1 0.7
2017-Jan-18 17:01N 72°07' E 044°20'1 0.6
2017-Jan-18 16:01N 72°07' E 044°19'1 0.8
2017-Jan-18 15:01N 72°08' E 044°17'1 0.7
2017-Jan-18 14:01N 72°08' E 044°14'1 0.7
2017-Jan-18 13:01N 72°08' E 044°12'1 1.1
2017-Jan-18 12:01N 72°08' E 044°09'1 0.9
2017-Jan-18 11:01N 72°08' E 044°06'1 0.9
2017-Jan-18 10:01N 72°09' E 044°04'1 0.8
2017-Jan-18 09:01N 72°10' E 044°02'1 0.8
2017-Jan-18 08:01N 72°10' E 044°00'1 0.9
2017-Jan-18 07:01N 72°11' E 043°58'1 0.7
2017-Jan-18 06:01N 72°11' E 043°55'1 1.1 120 / 14 gusting 171018.8 2.710.7 7.711.6
2017-Jan-18 05:01N 72°11' E 043°52'1 0.6
2017-Jan-18 04:01N 72°11' E 043°50'1 0.7
2017-Jan-18 03:01N 72°11' E 043°48'1 0.7
2017-Jan-18 02:01N 72°11' E 043°46'1 0.6
2017-Jan-18 01:01N 72°11' E 043°44'1 0.7
2017-Jan-18 00:01N 72°11' E 043°41'1 0.7
2017-Jan-17 23:01N 72°11' E 043°39'1 0.7
2017-Jan-17 22:01N 72°11' E 043°37'1 0.6
2017-Jan-17 21:01N 72°11' E 043°35'1 0.8
2017-Jan-17 20:01N 72°11' E 043°33'1 0.7
2017-Jan-17 19:01N 72°11' E 043°31'1 0.6
2017-Jan-17 18:01N 72°11' E 043°29'0 0.4 210 / 41038.9 0.4-1.6 3.7
2017-Jan-17 17:01N 72°11' E 043°28'1 0.7
2017-Jan-17 16:01N 72°11' E 043°25'1 0.7
2017-Jan-17 15:01N 72°10' E 043°24'1 0.6
2017-Jan-17 14:01N 72°10' E 043°22'1 0.8
2017-Jan-17 13:01N 72°10' E 043°20'1 0.8
2017-Jan-17 12:01N 72°09' E 043°19'1 0.9
2017-Jan-17 11:01N 72°08' E 043°16'1 0.6
2017-Jan-17 10:01N 72°08' E 043°14'1 0.8
2017-Jan-17 09:01N 72°08' E 043°13'1 1.0
2017-Jan-17 08:01N 72°07' E 043°10'3 0.8
2017-Jan-17 05:01N 72°06' E 043°03'2 0.6
2017-Jan-17 02:01N 72°05' E 042°58'1 0.6
2017-Jan-17 01:01N 72°05' E 042°56'1 0.7
2017-Jan-17 00:01N 72°04' E 042°55'1 0.6
2017-Jan-16 23:01N 72°04' E 042°53'1 0.7
2017-Jan-16 22:01N 72°04' E 042°52'0 0.4
2017-Jan-16 21:01N 72°04' E 042°51'0 0.4
2017-Jan-16 20:01N 72°04' E 042°50'0 0.4
2017-Jan-16 19:01N 72°04' E 042°49'1 0.8
2017-Jan-16 18:01N 72°04' E 042°47'1 0.6
2017-Jan-16 17:01N 72°04' E 042°46'0 0.2
2017-Jan-16 16:01N 72°04' E 042°46'1 0.6
2017-Jan-16 15:01N 72°04' E 042°46'0 0.2
2017-Jan-16 14:01N 72°04' E 042°46'0 0.0
2017-Jan-16 13:01N 72°04' E 042°46'0 0.0
2017-Jan-16 12:01N 72°04' E 042°46'1 0.6
2017-Jan-16 11:01N 72°05' E 042°46'1 0.3
2017-Jan-16 09:01N 72°05' E 042°46'1 0.6
2017-Jan-16 08:01N 72°06' E 042°46'0 0.0
2017-Jan-16 07:01N 72°06' E 042°46'1 0.6
2017-Jan-16 05:01N 72°07' E 042°46'1 0.6
2017-Jan-16 04:01N 72°08' E 042°47'1 0.4
2017-Jan-16 01:01N 72°09' E 042°48'0 0.2
2017-Jan-16 00:01N 72°09' E 042°47'0 0.2
2017-Jan-15 23:01N 72°09' E 042°47'0 0.2
2017-Jan-15 22:01N 72°09' E 042°46'1 0.7
2017-Jan-15 21:01N 72°10' E 042°45'0 0.4
2017-Jan-15 20:01N 72°10' E 042°44'1 0.7
2017-Jan-15 19:01N 72°10' E 042°43'0 0.4
2017-Jan-15 18:01N 72°10' E 042°41'0 0.4
2017-Jan-15 17:01N 72°10' E 042°40'0 0.2
2017-Jan-15 16:01N 72°10' E 042°40'0 0.4
2017-Jan-15 15:01N 72°10' E 042°38'0 0.2
2017-Jan-15 14:01N 72°10' E 042°38'1 0.6
2017-Jan-15 13:01N 72°10' E 042°37'1 0.7
2017-Jan-15 12:01N 72°09' E 042°36'1 0.7
2017-Jan-15 11:01N 72°08' E 042°35'0 0.2
2017-Jan-15 10:01N 72°08' E 042°34'1 0.5
2017-Jan-15 08:01N 72°08' E 042°32'1 0.5
2017-Jan-15 06:01N 72°07' E 042°29'1 0.7
2017-Jan-15 05:01N 72°07' E 042°28'1 0.7
2017-Jan-15 04:01N 72°06' E 042°27'1 0.5
2017-Jan-15 02:01N 72°05' E 042°25'1 0.7
2017-Jan-15 01:01N 72°05' E 042°23'1 0.7
2017-Jan-15 00:01N 72°04' E 042°22'1 0.7
2017-Jan-14 23:01N 72°04' E 042°21'1 0.7
2017-Jan-14 22:01N 72°03' E 042°20'1 0.6
2017-Jan-14 21:01N 72°03' E 042°18'1 0.7
2017-Jan-14 20:01N 72°02' E 042°17'1 0.6
2017-Jan-14 19:01N 72°02' E 042°15'1 0.6
2017-Jan-14 18:01N 72°02' E 042°13'1 0.8
2017-Jan-14 17:01N 72°02' E 042°11'0 0.4
2017-Jan-14 16:01N 72°02' E 042°10'1 0.6
2017-Jan-14 15:01N 72°01' E 042°10'0 0.2
2017-Jan-14 14:01N 72°01' E 042°09'1 0.6
2017-Jan-14 13:01N 72°01' E 042°08'1 0.6
2017-Jan-14 12:01N 72°00' E 042°08'1 0.6
2017-Jan-14 11:01N 71°59' E 042°08'1 0.6
2017-Jan-14 10:01N 71°59' E 042°08'1 0.6
2017-Jan-14 09:01N 71°58' E 042°08'1 0.6
2017-Jan-14 08:01N 71°58' E 042°07'1 0.7
2017-Jan-14 07:01N 71°57' E 042°06'1 0.7
2017-Jan-14 06:01N 71°56' E 042°05'1 0.6
2017-Jan-14 05:01N 71°56' E 042°04'1 0.6
2017-Jan-14 04:01N 71°55' E 042°04'1 0.6
2017-Jan-14 03:01N 71°55' E 042°03'1 0.6
2017-Jan-14 02:01N 71°54' E 042°02'1 1.3
2017-Jan-14 01:01N 71°53' E 042°01'1 0.6
2017-Jan-14 00:01N 71°52' E 042°01'1 0.7
2017-Jan-13 23:01N 71°52' E 041°59'1 1.2
2017-Jan-13 22:01N 71°50' E 041°59'1 0.7
2017-Jan-13 21:01N 71°50' E 041°58'1 0.8
2017-Jan-13 20:01N 71°49' E 041°56'  

Dump ship's entire track history